createdAt,value
2022-11-16T00:01:37.846Z,29.57
2022-11-16T00:04:05.735Z,30.90
2022-11-16T00:06:33.331Z,31.27
2022-11-16T00:09:21.625Z,37.97
2022-11-16T00:11:51.496Z,33.10
2022-11-16T00:14:20.490Z,34.13
2022-11-16T00:16:47.905Z,34.15
2022-11-16T00:19:15.465Z,34.87
2022-11-16T00:21:43.122Z,35.63
2022-11-16T00:24:13.724Z,40.73
2022-11-16T00:26:41.918Z,35.27
2022-11-16T00:29:22.117Z,35.60
2022-11-16T00:31:50.654Z,37.77
2022-11-16T00:34:18.683Z,35.13
2022-11-16T00:36:46.915Z,37.07
2022-11-16T00:39:16.394Z,35.70
2022-11-16T00:41:46.615Z,35.67
2022-11-16T00:44:14.535Z,37.60
2022-11-16T00:46:42.819Z,36.00
2022-11-16T00:49:10.156Z,35.37
2022-11-16T00:51:38.067Z,33.93
2022-11-16T00:54:07.442Z,34.13
2022-11-16T00:59:02.674Z,34.53
2022-11-16T01:01:30.397Z,34.27
2022-11-16T01:03:57.736Z,30.03
2022-11-16T01:06:24.937Z,28.37
2022-11-16T01:08:53.312Z,25.23
2022-11-16T01:11:41.707Z,24.40
2022-11-16T01:14:10.223Z,23.87
2022-11-16T01:16:37.841Z,24.43
2022-11-16T01:19:05.735Z,22.63
2022-11-16T01:21:34.377Z,22.97
2022-11-16T01:24:01.731Z,25.88
2022-11-16T01:26:29.296Z,25.70
2022-11-16T01:28:58.835Z,27.23
2022-11-16T01:31:27.377Z,26.20
2022-11-16T01:33:55.165Z,27.23
2022-11-16T01:36:23.144Z,29.30
2022-11-16T01:38:50.887Z,28.00
2022-11-16T01:41:22.274Z,28.97
2022-11-16T01:44:06.304Z,23.10
2022-11-16T01:46:35.031Z,27.70
2022-11-16T01:49:12.531Z,28.07
2022-11-16T01:51:42.654Z,28.20
2022-11-16T01:54:12.802Z,24.23
2022-11-16T01:56:45.580Z,23.00
2022-11-16T01:59:14.701Z,22.70
2022-11-16T02:01:42.165Z,22.52
2022-11-16T02:04:14.365Z,23.60
2022-11-16T02:06:57.991Z,23.33
2022-11-16T02:09:57.340Z,24.20
2022-11-16T02:12:43.508Z,23.50
2022-11-16T02:15:19.629Z,24.60
2022-11-16T02:18:12.165Z,24.23
2022-11-16T02:21:13.237Z,24.03
2022-11-16T02:24:19.079Z,23.40
2022-11-16T02:27:20.767Z,25.47
2022-11-16T02:29:53.495Z,23.30
2022-11-16T02:32:27.124Z,24.33
2022-11-16T02:35:06.450Z,24.77
2022-11-16T02:37:39.208Z,26.98
2022-11-16T02:40:11.820Z,23.77
2022-11-16T02:42:45.537Z,24.33
2022-11-16T02:45:20.305Z,23.27
2022-11-16T02:47:50.136Z,25.37
2022-11-16T02:50:21.221Z,27.23
2022-11-16T02:52:48.561Z,24.80
2022-11-16T02:55:15.801Z,25.93
2022-11-16T02:58:07.613Z,25.20
2022-11-16T03:00:43.723Z,27.57
2022-11-16T03:03:14.518Z,27.43
2022-11-16T03:05:58.370Z,27.77
2022-11-16T03:08:32.635Z,30.87
2022-11-16T03:11:35.080Z,30.57
2022-11-16T03:14:21.317Z,26.37
2022-11-16T03:16:56.777Z,26.97
2022-11-16T03:19:33.816Z,29.07
2022-11-16T03:22:12.177Z,27.63
2022-11-16T03:24:41.818Z,25.92
2022-11-16T03:30:24.917Z,27.23
2022-11-16T03:33:00.090Z,27.30
2022-11-16T03:35:35.669Z,26.60
2022-11-16T03:38:05.822Z,29.30
2022-11-16T03:40:35.957Z,28.50
2022-11-16T03:43:06.868Z,29.97
2022-11-16T03:45:35.938Z,26.67
2022-11-16T03:48:07.292Z,28.47
2022-11-16T03:50:35.512Z,25.57
2022-11-16T03:53:02.961Z,27.20
2022-11-16T03:55:30.337Z,27.87
2022-11-16T03:57:58.672Z,25.70
2022-11-16T04:00:25.989Z,24.60
2022-11-16T04:02:53.930Z,24.10
2022-11-16T04:05:39.925Z,23.63
2022-11-16T04:08:33.403Z,21.30
2022-11-16T04:11:19.924Z,23.13
2022-11-16T04:14:09.289Z,23.93
2022-11-16T04:16:57.441Z,19.80
2022-11-16T04:19:44.292Z,18.37
2022-11-16T04:22:37.801Z,17.23
2022-11-16T04:25:14.523Z,22.23
2022-11-16T04:28:01.759Z,18.77
2022-11-16T04:30:50.542Z,21.53
2022-11-16T04:33:53.748Z,31.33
2022-11-16T04:36:42.501Z,23.33
2022-11-16T04:39:13.810Z,20.60
2022-11-16T04:42:01.959Z,19.95
2022-11-16T04:44:50.049Z,20.07
2022-11-16T04:47:18.116Z,19.37
2022-11-16T04:49:46.876Z,18.95
2022-11-16T04:52:14.393Z,23.23
2022-11-16T04:54:42.962Z,23.60
2022-11-16T04:57:11.256Z,24.77
2022-11-16T04:59:38.867Z,21.57
2022-11-16T05:02:09.658Z,21.80
2022-11-16T05:04:43.669Z,22.27
2022-11-16T05:09:58.232Z,24.17
2022-11-16T05:12:28.516Z,21.75
2022-11-16T05:14:56.573Z,19.13
2022-11-16T05:17:25.628Z,17.67
2022-11-16T05:20:13.317Z,18.90
2022-11-16T05:22:41.842Z,31.67
2022-11-16T05:25:11.490Z,28.43
2022-11-16T05:27:39.145Z,32.95
2022-11-16T05:30:07.897Z,33.43
2022-11-16T05:32:36.557Z,23.23
2022-11-16T05:35:04.848Z,21.37
2022-11-16T05:37:32.997Z,23.10
2022-11-16T05:40:02.025Z,23.25
2022-11-16T05:42:31.011Z,21.05
2022-11-16T05:44:58.464Z,33.17
2022-11-16T05:47:26.035Z,19.87
2022-11-16T05:49:53.551Z,17.00
2022-11-16T05:52:21.615Z,18.53
2022-11-16T05:54:50.707Z,16.90
2022-11-16T05:57:18.295Z,17.23
2022-11-16T05:59:46.019Z,16.67
2022-11-16T06:02:14.712Z,16.92
2022-11-16T06:04:42.797Z,16.33
2022-11-16T06:21:52.546Z,19.90
2022-11-16T06:24:20.957Z,22.80
2022-11-16T06:26:48.406Z,20.33
2022-11-16T06:29:16.198Z,18.83
2022-11-16T06:31:43.912Z,19.20
2022-11-16T06:34:11.244Z,19.60
2022-11-16T06:36:38.782Z,19.43
2022-11-16T06:39:06.998Z,20.70
2022-11-16T06:41:40.178Z,20.00
2022-11-16T06:44:09.386Z,20.97
2022-11-16T06:46:37.647Z,21.63
2022-11-16T06:49:05.379Z,17.93
2022-11-16T06:51:34.094Z,24.60
2022-11-16T06:54:01.362Z,18.40
2022-11-16T06:56:29.866Z,15.87
2022-11-16T06:58:58.588Z,16.57
2022-11-16T07:01:27.677Z,17.48
2022-11-16T07:03:58.057Z,14.40
2022-11-16T07:26:17.926Z,19.17
2022-11-16T07:28:48.345Z,24.37
2022-11-16T07:31:16.857Z,22.00
2022-11-16T07:33:44.613Z,28.03
2022-11-16T07:36:16.786Z,25.40
2022-11-16T07:38:44.267Z,20.43
2022-11-16T07:41:14.666Z,21.60
2022-11-16T07:43:48.605Z,21.70
2022-11-16T07:49:16.094Z,20.52
2022-11-16T07:51:45.876Z,19.93
2022-11-16T07:54:17.030Z,21.27
2022-11-16T07:56:44.666Z,23.03
2022-11-16T07:59:12.010Z,21.77
2022-11-16T08:01:40.318Z,21.73
2022-11-16T08:04:08.473Z,23.40
2022-11-16T08:06:36.541Z,23.70
2022-11-16T08:09:04.167Z,23.03
2022-11-16T08:11:32.905Z,25.33
2022-11-16T08:14:00.333Z,25.43
2022-11-16T08:16:28.056Z,23.70
2022-11-16T08:19:00.927Z,27.73
2022-11-16T08:21:28.386Z,24.70
2022-11-16T08:23:58.673Z,23.87
2022-11-16T08:26:27.748Z,22.77
2022-11-16T08:28:57.394Z,22.80
2022-11-16T08:31:27.882Z,27.27
2022-11-16T08:34:00.345Z,24.33
2022-11-16T08:36:27.860Z,40.50
2022-11-16T08:38:55.380Z,22.93
2022-11-16T08:41:23.304Z,21.30
2022-11-16T08:43:50.916Z,21.67
2022-11-16T08:46:18.509Z,19.80
2022-11-16T08:48:48.997Z,25.17
2022-11-16T08:51:19.488Z,22.27
2022-11-16T08:53:49.602Z,23.07
2022-11-16T08:56:18.956Z,19.67
2022-11-16T08:58:47.946Z,29.05
2022-11-16T09:01:19.846Z,23.50
2022-11-16T09:03:47.532Z,19.83
2022-11-16T09:06:16.336Z,18.90
2022-11-16T09:11:18.920Z,17.40
2022-11-16T09:13:48.172Z,19.27
2022-11-16T09:16:16.988Z,15.95
2022-11-16T09:18:46.811Z,18.40
2022-11-16T09:21:32.914Z,17.43
2022-11-16T09:24:00.354Z,19.57
2022-11-16T09:26:28.107Z,18.83
2022-11-16T09:29:00.566Z,18.90
2022-11-16T09:31:31.201Z,18.20
2022-11-16T09:33:59.058Z,16.67
2022-11-16T09:36:27.811Z,16.83
2022-11-16T09:42:06.707Z,15.60
2022-11-16T09:44:49.179Z,17.60
2022-11-16T09:47:22.617Z,19.80
2022-11-16T09:50:01.608Z,23.60
2022-11-16T09:55:24.823Z,17.80
2022-11-16T09:57:56.103Z,18.57
2022-11-16T10:00:24.837Z,18.30
2022-11-16T10:03:06.683Z,17.90
2022-11-16T10:05:38.839Z,15.93
2022-11-16T10:08:23.748Z,16.37
2022-11-16T10:11:14.369Z,15.70
2022-11-16T10:14:16.824Z,16.30
2022-11-16T10:17:05.037Z,15.60
2022-11-16T10:19:56.840Z,16.58
2022-11-16T10:22:51.669Z,15.83
2022-11-16T10:25:24.085Z,15.43
2022-11-16T10:28:25.673Z,15.07
2022-11-16T10:31:29.157Z,16.00
2022-11-16T10:33:59.230Z,15.87
2022-11-16T10:36:31.003Z,18.67
2022-11-16T10:39:00.695Z,17.93
2022-11-16T10:41:39.460Z,19.83
2022-11-16T10:44:17.621Z,19.33
2022-11-16T10:46:57.441Z,18.00
2022-11-16T10:49:40.620Z,17.33
2022-11-16T10:52:08.215Z,19.97
2022-11-16T10:54:37.826Z,16.33
2022-11-16T10:57:14.326Z,21.43
2022-11-16T10:59:55.725Z,19.53
2022-11-16T11:02:23.320Z,21.70
2022-11-16T11:05:04.203Z,20.33
2022-11-16T11:07:58.309Z,18.73
2022-11-16T11:10:40.348Z,19.93
2022-11-16T11:13:22.787Z,21.00
2022-11-16T11:15:51.457Z,22.27
2022-11-16T11:18:20.456Z,22.40
2022-11-16T11:20:51.984Z,20.85
2022-11-16T11:23:23.885Z,20.83
2022-11-16T11:25:51.171Z,20.83
2022-11-16T11:28:32.033Z,23.57
2022-11-16T11:31:17.221Z,24.97
2022-11-16T11:34:05.170Z,24.93
2022-11-16T11:36:40.640Z,25.37
2022-11-16T11:42:12.615Z,23.07
2022-11-16T11:44:52.117Z,25.07
2022-11-16T11:47:58.619Z,24.33
2022-11-16T11:50:58.213Z,22.33
2022-11-16T11:53:43.079Z,19.67
2022-11-16T11:56:12.576Z,20.93
2022-11-16T11:58:42.395Z,20.67
2022-11-16T12:01:25.278Z,23.07
2022-11-16T12:03:56.463Z,21.03
2022-11-16T12:06:52.547Z,25.67
2022-11-16T12:09:48.276Z,21.10
2022-11-16T12:12:37.952Z,19.57
2022-11-16T12:15:42.619Z,22.50
2022-11-16T12:18:22.275Z,21.83
2022-11-16T12:21:05.235Z,25.13
2022-11-16T12:24:08.228Z,25.20
2022-11-16T12:26:59.495Z,22.90
2022-11-16T12:29:44.903Z,24.90
2022-11-16T12:32:30.962Z,22.53
2022-11-16T12:35:21.748Z,24.67
2022-11-16T12:37:55.926Z,23.73
2022-11-16T12:40:45.123Z,21.37
2022-11-16T12:43:23.885Z,22.83
2022-11-16T12:46:07.147Z,20.62
2022-11-16T12:48:48.899Z,22.17
2022-11-16T12:51:48.704Z,22.47
2022-11-16T12:55:04.213Z,20.30
2022-11-16T12:57:35.821Z,22.57
2022-11-16T13:00:10.367Z,44.63
2022-11-16T13:02:43.715Z,31.63
2022-11-16T13:05:20.718Z,28.87
2022-11-16T13:07:52.845Z,26.23
2022-11-16T13:10:24.844Z,24.70
2022-11-16T13:13:15.373Z,26.33
2022-11-16T13:15:48.149Z,23.00
2022-11-16T13:18:19.842Z,25.73
2022-11-16T13:21:18.784Z,24.37
2022-11-16T13:24:07.546Z,25.65
2022-11-16T13:26:41.165Z,28.87
2022-11-16T13:29:37.463Z,30.87
2022-11-16T13:32:41.720Z,32.23
2022-11-16T13:35:15.249Z,29.83
2022-11-16T13:37:47.474Z,66.10
2022-11-16T13:40:24.612Z,46.00
2022-11-16T13:43:16.326Z,38.27
2022-11-16T13:45:49.922Z,35.67
2022-11-16T13:48:21.731Z,32.63
2022-11-16T13:50:55.484Z,36.97
2022-11-16T13:54:25.005Z,35.57
2022-11-16T13:56:20.901Z,15.20
2022-11-16T13:58:55.473Z,9.10
2022-11-16T14:01:24.062Z,21.47
2022-11-16T14:04:12.325Z,18.25
2022-11-16T14:09:49.501Z,24.97
2022-11-16T14:12:39.182Z,12.20
2022-11-16T14:15:17.372Z,7.43
2022-11-16T14:18:35.328Z,20.25
2022-11-16T14:21:17.831Z,20.90
2022-11-16T14:23:54.742Z,16.43
2022-11-16T14:26:40.325Z,13.63
2022-11-16T14:29:13.933Z,19.27
2022-11-16T14:31:50.580Z,21.50
2022-11-16T14:34:43.616Z,25.30
2022-11-16T14:37:24.622Z,24.90
2022-11-16T14:40:01.126Z,23.00
2022-11-16T14:42:42.987Z,28.20
2022-11-16T14:45:26.414Z,25.47
2022-11-16T14:48:00.123Z,24.93
2022-11-16T14:50:27.792Z,26.57
2022-11-16T14:53:00.521Z,28.43
2022-11-16T14:55:28.272Z,27.23
2022-11-16T14:58:21.525Z,27.40
2022-11-16T15:00:59.607Z,25.70
2022-11-16T15:03:30.967Z,34.13
2022-11-16T15:06:04.409Z,45.20
2022-11-16T15:08:54.609Z,41.17
2022-11-16T15:11:50.515Z,49.33
2022-11-16T15:14:24.889Z,41.67
2022-11-16T15:16:55.184Z,40.83
2022-11-16T15:19:23.858Z,35.40
2022-11-16T15:21:56.869Z,67.00
2022-11-16T15:24:31.063Z,43.47
2022-11-16T15:27:09.558Z,35.97
2022-11-16T15:29:37.828Z,34.17
2022-11-16T15:32:07.619Z,28.70
2022-11-16T15:34:37.920Z,28.80
2022-11-16T15:37:05.561Z,49.83
2022-11-16T15:39:36.295Z,44.23
2022-11-16T15:42:04.500Z,43.83
2022-11-16T15:44:33.737Z,45.15
2022-11-16T15:47:03.331Z,52.67
2022-11-16T15:49:34.575Z,57.13
2022-11-16T15:52:02.370Z,54.63
2022-11-16T15:54:54.843Z,45.37
2022-11-16T15:57:24.119Z,59.23
2022-11-16T16:02:31.867Z,41.37
2022-11-16T16:04:59.524Z,39.27
2022-11-16T16:07:38.236Z,37.83
2022-11-16T16:13:01.330Z,38.90
2022-11-16T16:15:34.197Z,45.63
2022-11-16T16:18:02.969Z,46.50
2022-11-16T16:20:32.296Z,56.67
2022-11-16T16:23:13.173Z,56.60
2022-11-16T16:25:44.722Z,49.97
2022-11-16T16:28:14.844Z,43.10
2022-11-16T16:30:43.286Z,35.90
2022-11-16T16:33:19.444Z,74.40
2022-11-16T16:35:49.945Z,67.30
2022-11-16T16:38:17.279Z,85.50
2022-11-16T16:40:44.662Z,108.97
2022-11-16T16:43:12.316Z,92.37
2022-11-16T16:45:43.566Z,82.20
2022-11-16T16:48:14.069Z,77.80
2022-11-16T16:50:41.691Z,40.03
2022-11-16T16:53:12.440Z,35.77
2022-11-16T16:55:40.141Z,87.80
2022-11-16T16:58:07.825Z,66.30
2022-11-16T17:00:35.465Z,70.90
2022-11-16T17:03:02.903Z,67.20
2022-11-16T17:05:32.974Z,60.73
2022-11-16T17:08:00.901Z,57.47
2022-11-16T17:10:28.242Z,51.80
2022-11-16T17:12:56.623Z,72.70
2022-11-16T17:15:24.804Z,66.75
2022-11-16T17:17:52.161Z,59.47
2022-11-16T17:20:19.836Z,56.23
2022-11-16T17:22:47.151Z,115.60
2022-11-16T17:25:15.077Z,77.77
2022-11-16T17:27:42.904Z,52.28
2022-11-16T17:30:10.791Z,53.03
2022-11-16T17:32:38.070Z,54.47
2022-11-16T17:35:05.778Z,84.10
2022-11-16T17:37:33.069Z,83.80
2022-11-16T17:40:00.469Z,55.47
2022-11-16T17:42:28.125Z,44.20
2022-11-16T17:44:55.621Z,128.37
2022-11-16T17:47:22.932Z,132.73
2022-11-16T17:49:50.569Z,115.93
2022-11-16T17:52:17.892Z,108.40
2022-11-16T17:54:45.152Z,77.57
2022-11-16T17:57:12.811Z,72.50
2022-11-16T17:59:40.325Z,81.17
2022-11-16T18:02:10.848Z,76.50
2022-11-16T18:04:38.609Z,65.43
2022-11-16T18:07:05.986Z,55.50
2022-11-16T18:09:33.351Z,77.77
2022-11-16T18:12:01.035Z,93.63
2022-11-16T18:14:28.303Z,75.20
2022-11-16T18:16:55.744Z,88.10
2022-11-16T18:19:23.363Z,131.47
2022-11-16T18:21:50.898Z,102.37
2022-11-16T18:24:18.233Z,74.13
2022-11-16T18:26:45.952Z,58.07
2022-11-16T18:29:16.174Z,37.23
2022-11-16T18:31:43.748Z,16.40
2022-11-16T18:34:15.521Z,10.57
2022-11-16T18:36:42.942Z,13.77
2022-11-16T18:39:10.667Z,13.03
2022-11-16T18:41:48.780Z,11.23
2022-11-16T18:44:21.038Z,12.20
2022-11-16T18:46:48.430Z,11.13
2022-11-16T18:49:16.113Z,7.57
2022-11-16T18:51:43.831Z,9.57
2022-11-16T18:54:11.136Z,11.47
2022-11-16T18:56:38.594Z,10.50
2022-11-16T18:59:06.188Z,7.10
2022-11-16T19:01:33.586Z,9.70
2022-11-16T19:04:00.958Z,9.80
2022-11-16T19:06:32.377Z,10.60
2022-11-16T19:09:00.170Z,9.80
2022-11-16T19:11:28.726Z,23.17
2022-11-16T19:14:01.131Z,10.93
2022-11-16T19:16:28.641Z,6.87
2022-11-16T19:18:57.438Z,6.53
2022-11-16T19:21:25.399Z,7.60
2022-11-16T19:23:54.314Z,5.73
2022-11-16T19:26:24.759Z,4.73
2022-11-16T19:28:53.399Z,6.60
2022-11-16T19:31:28.807Z,5.47
2022-11-16T19:33:59.190Z,6.07
2022-11-16T19:36:28.167Z,6.97
2022-11-16T19:38:56.434Z,5.40
2022-11-16T19:41:25.908Z,5.47
2022-11-16T19:43:57.432Z,5.93
2022-11-16T19:46:26.669Z,5.67
2022-11-16T19:48:55.505Z,6.97
2022-11-16T19:51:25.796Z,7.43
2022-11-16T19:53:53.678Z,7.47
2022-11-16T19:56:23.112Z,17.87
2022-11-16T19:58:51.238Z,19.80
2022-11-16T20:01:26.337Z,29.77
2022-11-16T20:03:56.172Z,30.93
2022-11-16T20:06:29.494Z,11.17
2022-11-16T20:09:08.524Z,11.17
2022-11-16T20:14:07.086Z,17.02
2022-11-16T20:16:39.232Z,27.83
2022-11-16T20:19:09.472Z,11.17
2022-11-16T20:21:38.972Z,9.30
2022-11-16T20:24:11.674Z,8.00
2022-11-16T20:26:46.496Z,8.47
2022-11-16T20:29:15.721Z,7.17
2022-11-16T20:31:45.410Z,7.43
2022-11-16T20:34:15.277Z,7.70
2022-11-16T20:36:45.311Z,7.37
2022-11-16T20:39:14.614Z,7.30
2022-11-16T20:41:44.048Z,7.27
2022-11-16T20:44:16.540Z,7.10
2022-11-16T20:46:45.348Z,8.20
2022-11-16T20:49:13.344Z,8.25
2022-11-16T20:51:41.219Z,8.90
2022-11-16T20:54:08.729Z,7.50
2022-11-16T20:56:36.609Z,8.27
2022-11-16T20:59:03.950Z,8.53
2022-11-16T21:01:34.100Z,9.37
2022-11-16T21:04:04.462Z,12.03
2022-11-16T21:06:33.338Z,11.23
2022-11-16T21:09:01.279Z,11.60
2022-11-16T21:11:31.157Z,12.65
2022-11-16T21:14:16.667Z,13.23
2022-11-16T21:16:44.950Z,11.67
2022-11-16T21:19:12.879Z,13.07
2022-11-16T21:21:41.092Z,11.27
2022-11-16T21:24:10.404Z,14.33
2022-11-16T21:26:38.203Z,14.63
2022-11-16T21:29:05.926Z,13.67
2022-11-16T21:31:36.456Z,19.70
2022-11-16T21:34:04.852Z,17.87
2022-11-16T21:36:33.042Z,20.48
2022-11-16T21:39:00.921Z,13.18
2022-11-16T21:41:28.799Z,14.43
2022-11-16T21:43:56.617Z,14.00
2022-11-16T21:46:26.369Z,13.30
2022-11-16T21:48:55.565Z,15.17
2022-11-16T21:53:52.855Z,14.57
2022-11-16T21:56:22.125Z,23.33
2022-11-16T22:01:18.864Z,11.30
2022-11-16T22:03:46.700Z,10.20
2022-11-16T22:06:34.072Z,9.53
2022-11-16T22:09:01.968Z,8.80
2022-11-16T22:11:29.523Z,13.13
2022-11-16T22:13:56.924Z,18.77
2022-11-16T22:16:24.584Z,27.30
2022-11-16T22:18:51.979Z,17.37
2022-11-16T22:21:19.389Z,13.40
2022-11-16T22:23:46.935Z,20.70
2022-11-16T22:26:14.837Z,17.23
2022-11-16T22:28:42.342Z,13.37
2022-11-16T22:31:12.686Z,11.40
2022-11-16T22:33:40.635Z,11.10
2022-11-16T22:36:09.816Z,10.80
2022-11-16T22:38:38.015Z,32.13
2022-11-16T22:41:06.032Z,25.57
2022-11-16T22:43:33.795Z,20.83
2022-11-16T22:46:04.605Z,17.60
2022-11-16T22:48:37.430Z,26.43
2022-11-16T22:51:17.999Z,13.13
2022-11-16T22:53:45.794Z,10.03
2022-11-16T22:56:14.038Z,10.03
2022-11-16T22:58:41.397Z,8.43
2022-11-16T23:01:09.859Z,7.97
2022-11-16T23:03:37.771Z,7.47
2022-11-16T23:06:05.916Z,7.60
2022-11-16T23:08:33.995Z,9.00
2022-11-16T23:11:30.260Z,9.48
2022-11-16T23:14:16.582Z,8.60
2022-11-16T23:16:44.962Z,9.73
2022-11-16T23:19:33.239Z,8.30
2022-11-16T23:22:19.765Z,14.20
2022-11-16T23:25:06.032Z,9.47
2022-11-16T23:27:41.882Z,10.67
2022-11-16T23:30:12.839Z,8.83
2022-11-16T23:32:41.838Z,8.73
2022-11-16T23:35:10.462Z,8.53
2022-11-16T23:37:51.689Z,7.65
2022-11-16T23:40:20.071Z,7.47
2022-11-16T23:43:05.900Z,8.87
2022-11-16T23:45:33.930Z,8.67
2022-11-16T23:48:01.262Z,6.17
2022-11-16T23:50:28.615Z,7.00
2022-11-16T23:52:56.258Z,7.13
2022-11-16T23:55:23.501Z,12.23
2022-11-16T23:57:51.470Z,11.97
